Time;durP1;ratioP1;P1;durP2;ratioP2;P2;SDS_P1;SDS_P2;PMS_P1;PMS_P2;Temp;Humidity;BMP_temperature;BMP_pressure;BME280_temperature;BME280_humidity;BME280_pressure;Samples;Min_cycle;Max_cycle;Signal;HPM_P1;HPM_P2
2023/03/29 00:00:26;;;;;;;6.05;2.10;;;4.70;92.60;;;;;;5040780;28;20214;-65
2023/03/29 00:02:55;;;;;;;3.97;1.50;;;4.70;92.50;;;;;;5041374;28;20119;-64
2023/03/29 00:05:21;;;;;;;4.18;1.70;;;4.70;92.40;;;;;;5034437;28;20107;-65
2023/03/29 00:08:00;;;;;;;3.92;1.60;;;4.70;92.40;;;;;;5039779;28;20063;-65
2023/03/29 00:10:26;;;;;;;3.42;1.75;;;4.70;92.40;;;;;;5040808;28;20123;-64
2023/03/29 00:12:52;;;;;;;7.07;1.50;;;4.70;92.20;;;;;;5041571;28;20036;-64
2023/03/29 00:15:19;;;;;;;6.68;1.80;;;4.70;92.30;;;;;;5037216;28;20029;-64
2023/03/29 00:17:45;;;;;;;5.32;1.73;;;4.80;92.20;;;;;;5038761;28;20033;-64
2023/03/29 00:20:11;;;;;;;4.63;1.40;;;4.80;92.10;;;;;;5036502;28;20040;-65
2023/03/29 00:22:38;;;;;;;8.77;1.60;;;4.80;92.10;;;;;;5041845;28;20035;-64
2023/03/29 00:25:06;;;;;;;4.72;1.60;;;4.90;92.00;;;;;;5042062;28;20028;-64
2023/03/29 00:27:32;;;;;;;4.25;1.40;;;4.90;91.90;;;;;;5041763;28;20028;-65
2023/03/29 00:29:58;;;;;;;8.40;1.60;;;4.90;91.80;;;;;;5044114;28;20032;-65
2023/03/29 00:32:24;;;;;;;5.65;1.73;;;5.00;91.70;;;;;;5037547;28;20108;-64
2023/03/29 00:34:51;;;;;;;5.78;1.80;;;5.00;91.70;;;;;;5049256;28;20670;-64
2023/03/29 00:37:17;;;;;;;3.35;1.40;;;5.00;91.60;;;;;;5052745;28;20465;-65
2023/03/29 00:39:45;;;;;;;4.45;1.92;;;5.00;91.50;;;;;;5045876;28;20068;-67
2023/03/29 00:42:12;;;;;;;5.43;1.67;;;5.10;91.30;;;;;;5042442;28;20104;-65
2023/03/29 00:45:03;;;;;;;7.25;1.45;;;5.10;91.20;;;;;;5039477;28;20025;-65
2023/03/29 00:47:38;;;;;;;3.65;1.58;;;5.10;91.20;;;;;;5033733;28;20041;-65
2023/03/29 00:50:33;;;;;;;5.13;1.83;;;5.20;91.10;;;;;;5036008;28;20685;-65
2023/03/29 00:53:12;;;;;;;2.80;1.45;;;5.10;91.20;;;;;;5013680;28;20033;-65
2023/03/29 00:56:19;;;;;;;4.78;1.45;;;5.10;91.10;;;;;;5056206;28;20056;-64
2023/03/29 00:58:56;;;;;;;3.10;1.75;;;5.10;91.10;;;;;;5031031;28;20520;-65
2023/03/29 01:01:53;;;;;;;7.03;1.88;;;5.10;91.10;;;;;;5035324;28;20409;-66
2023/03/29 01:04:22;;;;;;;3.40;1.58;;;5.10;91.00;;;;;;5036930;28;20410;-66
2023/03/29 01:06:58;;;;;;;4.65;1.58;;;5.10;90.90;;;;;;5036884;28;20087;-66
2023/03/29 01:09:28;;;;;;;6.13;1.65;;;5.10;90.90;;;;;;5035944;28;20544;-66
2023/03/29 01:11:57;;;;;;;6.40;1.70;;;5.10;90.90;;;;;;5041316;28;20025;-65
2023/03/29 01:14:43;;;;;;;6.85;2.05;;;5.00;90.90;;;;;;5040178;28;20059;-65
2023/03/29 01:17:11;;;;;;;3.83;1.58;;;5.00;90.80;;;;;;5032014;28;20759;-67
2023/03/29 01:19:44;;;;;;;5.70;2.40;;;5.00;91.20;;;;;;5039929;28;20044;-65
2023/03/29 01:22:32;;;;;;;4.18;1.77;;;5.00;91.10;;;;;;5037625;28;20051;-66
2023/03/29 01:25:11;;;;;;;3.10;1.45;;;5.00;90.90;;;;;;5039152;28;20563;-65
2023/03/29 01:27:52;;;;;;;11.95;1.98;;;5.00;90.80;;;;;;5044159;28;20025;-65
2023/03/29 01:30:35;;;;;;;5.75;1.80;;;5.00;91.00;;;;;;5041033;28;20041;-65
2023/03/29 01:33:20;;;;;;;4.18;1.67;;;5.00;90.90;;;;;;5036589;28;20358;-66
2023/03/29 01:36:00;;;;;;;3.70;1.65;;;5.00;90.60;;;;;;5044355;28;20033;-66
2023/03/29 01:38:54;;;;;;;8.80;1.83;;;5.00;90.50;;;;;;5043041;28;20044;-65
2023/03/29 01:41:21;;;;;;;5.28;1.83;;;5.00;90.40;;;;;;5038485;28;20124;-66
2023/03/29 01:44:00;;;;;;;4.65;1.50;;;5.00;90.60;;;;;;5042641;28;20048;-66
2023/03/29 01:46:46;;;;;;;6.25;2.08;;;5.00;90.50;;;;;;5040921;28;20043;-65
2023/03/29 01:49:29;;;;;;;8.10;2.20;;;5.00;90.50;;;;;;5044400;28;20029;-65
2023/03/29 01:52:04;;;;;;;3.08;1.58;;;5.00;90.60;;;;;;5043660;28;20032;-65
2023/03/29 01:54:42;;;;;;;6.60;1.75;;;5.00;90.60;;;;;;5040713;28;20044;-65
2023/03/29 01:57:09;;;;;;;7.78;2.30;;;5.00;90.40;;;;;;5039106;28;20515;-66
2023/03/29 01:59:38;;;;;;;9.00;2.03;;;4.90;90.20;;;;;;5044163;28;20036;-65
2023/03/29 02:02:07;;;;;;;7.80;2.20;;;5.00;90.40;;;;;;5037706;28;20798;-65
2023/03/29 02:04:38;;;;;;;8.93;2.03;;;5.00;90.50;;;;;;5042705;28;20060;-65
2023/03/29 02:07:07;;;;;;;6.10;1.98;;;5.00;90.50;;;;;;5037580;28;20033;-65
2023/03/29 02:09:37;;;;;;;9.75;1.90;;;5.00;90.20;;;;;;5043932;28;20029;-65
2023/03/29 02:12:05;;;;;;;7.00;2.15;;;5.00;90.10;;;;;;5038004;28;20032;-65
2023/03/29 02:14:31;;;;;;;4.00;2.25;;;4.90;90.10;;;;;;5043195;28;20086;-65
2023/03/29 02:17:21;;;;;;;6.55;1.95;;;5.00;90.30;;;;;;5039877;28;20803;-65
2023/03/29 02:19:59;;;;;;;6.18;2.13;;;4.90;90.00;;;;;;5044061;28;20437;-65
2023/03/29 02:22:37;;;;;;;6.47;1.92;;;5.00;90.20;;;;;;5042087;28;20455;-66
2023/03/29 02:25:07;;;;;;;5.32;2.10;;;4.90;90.30;;;;;;5040705;28;20039;-65
2023/03/29 02:27:33;;;;;;;7.18;2.00;;;4.90;90.10;;;;;;5042668;28;20036;-66
2023/03/29 02:29:59;;;;;;;6.22;1.90;;;4.80;90.10;;;;;;5042061;28;20064;-65
2023/03/29 02:32:58;;;;;;;5.07;1.73;;;4.80;90.10;;;;;;5042658;28;20036;-65
2023/03/29 02:35:33;;;;;;;9.23;2.17;;;4.80;90.30;;;;;;5038448;28;20083;-66
2023/03/29 02:38:07;;;;;;;5.10;2.22;;;4.80;90.60;;;;;;5038627;28;20025;-65
2023/03/29 02:40:34;;;;;;;6.22;1.95;;;4.70;90.20;;;;;;5041464;28;20052;-65
2023/03/29 02:43:03;;;;;;;6.65;2.75;;;4.70;90.30;;;;;;5050186;28;20025;-66
2023/03/29 02:45:30;;;;;;;5.68;2.17;;;4.60;90.40;;;;;;5048415;28;20030;-65
2023/03/29 02:48:03;;;;;;;5.00;1.95;;;4.50;90.40;;;;;;5045286;28;20017;-66
2023/03/29 02:50:40;;;;;;;4.45;2.03;;;4.50;90.70;;;;;;5045451;28;20798;-65
2023/03/29 02:53:15;;;;;;;5.20;2.00;;;4.50;90.60;;;;;;5042878;28;20536;-66
2023/03/29 02:55:45;;;;;;;6.93;2.10;;;4.50;90.70;;;;;;5051479;28;20024;-65
2023/03/29 02:58:14;;;;;;;7.97;2.63;;;4.50;90.60;;;;;;5035280;28;20273;-65
2023/03/29 03:00:45;;;;;;;5.90;1.55;;;4.50;90.70;;;;;;5035313;28;20083;-66
2023/03/29 03:03:11;;;;;;;6.35;2.17;;;4.40;90.70;;;;;;5043488;28;20048;-66
2023/03/29 03:05:38;;;;;;;4.32;1.88;;;4.40;90.90;;;;;;5033846;28;20057;-66
2023/03/29 03:08:06;;;;;;;5.75;1.98;;;4.30;91.00;;;;;;5040200;28;20029;-65
2023/03/29 03:10:36;;;;;;;7.57;1.88;;;4.30;91.20;;;;;;5044542;28;20025;-65
2023/03/29 03:13:03;;;;;;;6.22;1.70;;;4.20;91.30;;;;;;5041321;28;20025;-66
2023/03/29 03:15:31;;;;;;;8.70;2.50;;;4.20;91.40;;;;;;5043979;28;20183;-65
2023/03/29 03:17:57;;;;;;;7.53;2.30;;;4.20;91.40;;;;;;5039262;28;20025;-65
2023/03/29 03:20:23;;;;;;;6.40;2.40;;;4.20;91.30;;;;;;5043626;28;20925;-66
2023/03/29 03:22:49;;;;;;;8.18;2.20;;;4.20;91.30;;;;;;5041757;28;20039;-65
2023/03/29 03:25:18;;;;;;;4.28;2.28;;;4.20;91.60;;;;;;5043034;28;20025;-65
2023/03/29 03:27:44;;;;;;;7.50;2.17;;;4.20;91.60;;;;;;5039782;28;20040;-66
2023/03/29 03:30:10;;;;;;;7.35;2.42;;;4.20;91.40;;;;;;5034274;28;20250;-65
2023/03/29 03:32:55;;;;;;;4.55;2.00;;;4.20;91.20;;;;;;5042262;28;20841;-65
2023/03/29 03:35:41;;;;;;;10.75;2.05;;;4.10;91.20;;;;;;5043373;28;20841;-66
2023/03/29 03:38:07;;;;;;;5.45;2.22;;;4.10;91.30;;;;;;5040590;28;20033;-65
2023/03/29 03:40:33;;;;;;;4.95;2.13;;;4.10;91.30;;;;;;5041087;28;20053;-65
2023/03/29 03:43:00;;;;;;;5.63;2.40;;;4.10;91.70;;;;;;5040703;28;20439;-65
2023/03/29 03:45:25;;;;;;;3.78;2.10;;;4.10;91.40;;;;;;5034925;28;20029;-65
2023/03/29 03:47:59;;;;;;;9.15;2.17;;;4.10;91.40;;;;;;5042453;28;20793;-66
2023/03/29 03:50:57;;;;;;;6.07;2.35;;;4.10;91.30;;;;;;5035852;28;20490;-65
2023/03/29 03:53:26;;;;;;;4.95;2.05;;;4.10;91.30;;;;;;5041391;28;20067;-65
2023/03/29 03:56:10;;;;;;;6.15;2.20;;;4.10;91.40;;;;;;5041551;28;20145;-65
2023/03/29 03:58:52;;;;;;;3.55;2.42;;;4.10;91.40;;;;;;5036716;28;20576;-66
2023/03/29 04:01:18;;;;;;;4.60;2.28;;;4.10;91.40;;;;;;5050413;28;20551;-66
2023/03/29 04:03:54;;;;;;;4.80;2.20;;;4.00;91.50;;;;;;5038745;28;20041;-65
2023/03/29 04:06:21;;;;;;;3.70;2.00;;;4.00;91.50;;;;;;5036156;28;20040;-66
2023/03/29 04:09:13;;;;;;;5.30;2.05;;;4.00;91.40;;;;;;5013815;28;20123;-65
2023/03/29 04:11:42;;;;;;;10.10;2.40;;;4.00;91.70;;;;;;5043060;28;20712;-65
2023/03/29 04:14:10;;;;;;;9.63;2.30;;;3.90;91.60;;;;;;5040754;28;20040;-64
2023/03/29 04:16:54;;;;;;;5.53;2.33;;;3.90;91.60;;;;;;5044071;28;20087;-64
2023/03/29 04:19:39;;;;;;;7.00;2.28;;;3.90;91.60;;;;;;5045826;28;20060;-64
2023/03/29 04:22:05;;;;;;;6.28;2.30;;;3.80;91.70;;;;;;5040384;28;20697;-64
2023/03/29 04:24:30;;;;;;;5.65;2.10;;;3.80;91.80;;;;;;5048718;28;20033;-64
2023/03/29 04:27:16;;;;;;;7.10;2.13;;;3.80;91.90;;;;;;5029415;28;20144;-64
2023/03/29 04:29:43;;;;;;;6.15;2.15;;;3.80;91.90;;;;;;5041144;28;20100;-64
2023/03/29 04:32:18;;;;;;;;;;;3.80;91.90;;;;;;5038084;28;20854;-64
2023/03/29 04:34:54;;;;;;;8.02;2.35;;;3.80;92.00;;;;;;5036900;28;19920;-63
2023/03/29 04:37:21;;;;;;;6.45;2.17;;;3.80;92.10;;;;;;5033224;28;20029;-62
2023/03/29 04:39:51;;;;;;;5.13;2.10;;;3.80;92.00;;;;;;5034057;28;20029;-63
2023/03/29 04:42:18;;;;;;;5.85;2.50;;;3.80;92.10;;;;;;5027565;28;20071;-62
2023/03/29 04:44:45;;;;;;;6.35;2.28;;;3.80;92.00;;;;;;5034607;28;20037;-63
2023/03/29 04:47:13;;;;;;;4.97;2.08;;;3.80;92.20;;;;;;5033111;28;20777;-63
2023/03/29 04:49:42;;;;;;;7.32;2.20;;;3.90;92.20;;;;;;5037612;28;20048;-63
2023/03/29 04:52:18;;;;;;;7.28;2.30;;;3.90;92.20;;;;;;5037939;28;20067;-63
2023/03/29 04:54:44;;;;;;;5.28;2.00;;;4.00;92.20;;;;;;5032310;28;20095;-63
2023/03/29 04:57:33;;;;;;;5.05;2.00;;;4.00;92.10;;;;;;5017900;28;20037;-63
2023/03/29 05:00:13;;;;;;;5.72;2.38;;;4.00;92.00;;;;;;5036824;28;20128;-63
2023/03/29 05:03:13;;;;;;;9.38;2.20;;;4.00;92.00;;;;;;5040113;28;20036;-63
2023/03/29 05:05:49;;;;;;;5.15;2.55;;;4.10;91.80;;;;;;5044777;28;20082;-63
2023/03/29 05:08:15;;;;;;;6.28;2.33;;;4.10;91.70;;;;;;5041776;28;20041;-63
2023/03/29 05:11:00;;;;;;;4.55;2.20;;;4.10;91.70;;;;;;5040792;28;20608;-63
2023/03/29 05:13:27;;;;;;;7.97;2.88;;;4.20;91.80;;;;;;5039398;28;20059;-63
2023/03/29 05:15:55;;;;;;;6.25;2.28;;;4.30;91.80;;;;;;5042496;28;20028;-62
2023/03/29 05:18:21;;;;;;;4.85;2.58;;;4.30;91.90;;;;;;5035111;28;20033;-63
2023/03/29 05:20:50;;;;;;;5.63;2.33;;;4.40;91.80;;;;;;5034623;28;20028;-63
2023/03/29 05:23:17;;;;;;;8.43;2.47;;;4.40;91.60;;;;;;5038541;28;20036;-63
2023/03/29 05:26:03;;;;;;;6.75;2.25;;;4.40;91.50;;;;;;5037231;28;20039;-62
2023/03/29 05:28:29;;;;;;;7.85;2.22;;;4.50;91.60;;;;;;5042560;28;20021;-63
2023/03/29 05:31:05;;;;;;;8.05;2.50;;;4.50;91.50;;;;;;5041081;28;20036;-63
2023/03/29 05:33:34;;;;;;;4.28;1.88;;;4.60;91.40;;;;;;5038847;28;20028;-62
2023/03/29 05:36:02;;;;;;;9.43;2.30;;;4.60;91.30;;;;;;5037189;28;20044;-63
2023/03/29 05:38:29;;;;;;;5.25;2.13;;;4.70;91.30;;;;;;5035590;28;20051;-63
2023/03/29 05:40:56;;;;;;;7.57;2.10;;;4.70;91.30;;;;;;5040092;28;20492;-62
2023/03/29 05:43:27;;;;;;;5.05;1.90;;;4.80;91.20;;;;;;5041879;28;20821;-63
2023/03/29 05:45:55;;;;;;;4.25;1.88;;;4.80;91.10;;;;;;5039774;28;20029;-63
2023/03/29 05:48:22;;;;;;;7.57;2.47;;;4.90;91.10;;;;;;5036788;28;20089;-63
2023/03/29 05:50:51;;;;;;;7.38;2.30;;;4.90;91.20;;;;;;5039964;28;20028;-63
2023/03/29 05:53:18;;;;;;;4.78;2.00;;;5.10;90.90;;;;;;5044439;28;20039;-64
2023/03/29 05:55:45;;;;;;;9.52;2.90;;;5.10;90.80;;;;;;5038176;28;20079;-63
2023/03/29 05:58:14;;;;;;;6.18;2.75;;;5.20;90.70;;;;;;5035308;28;20037;-63
2023/03/29 06:00:41;;;;;;;9.15;2.65;;;5.30;90.70;;;;;;5037341;28;20679;-63
2023/03/29 06:03:26;;;;;;;8.73;2.85;;;5.40;90.40;;;;;;5032845;28;20564;-61
2023/03/29 06:05:58;;;;;;;6.03;2.15;;;5.40;90.40;;;;;;5036787;28;20029;-64
2023/03/29 06:08:25;;;;;;;4.50;2.30;;;5.50;90.10;;;;;;5031669;28;20029;-64
2023/03/29 06:11:14;;;;;;;6.38;2.20;;;5.60;89.60;;;;;;4995235;28;20094;-63
2023/03/29 06:14:01;;;;;;;3.60;2.38;;;5.70;89.20;;;;;;5024709;28;20072;-63
2023/03/29 06:16:27;;;;;;;7.15;2.42;;;5.80;89.10;;;;;;5026664;28;20021;-63
2023/03/29 06:18:54;;;;;;;7.80;2.65;;;5.80;89.20;;;;;;5039297;28;20032;-64
2023/03/29 06:21:21;;;;;;;4.55;2.28;;;5.90;89.30;;;;;;5035677;28;20040;-63
2023/03/29 06:23:47;;;;;;;2.92;1.90;;;6.00;88.70;;;;;;5036910;28;20029;-64
2023/03/29 06:26:14;;;;;;;4.15;2.17;;;6.00;87.90;;;;;;5036851;28;20041;-62
2023/03/29 06:28:40;;;;;;;9.77;2.10;;;6.10;87.00;;;;;;5029998;28;20029;-63
2023/03/29 06:31:08;;;;;;;6.93;2.17;;;6.10;87.10;;;;;;5040018;28;20017;-62
2023/03/29 06:33:38;;;;;;;6.18;2.10;;;6.20;87.60;;;;;;5039697;28;20033;-62
2023/03/29 06:36:18;;;;;;;8.75;2.42;;;6.30;86.60;;;;;;5034987;28;20107;-64
2023/03/29 06:38:44;;;;;;;6.70;2.53;;;6.30;86.40;;;;;;5036760;28;20614;-63
2023/03/29 06:41:38;;;;;;;6.90;2.20;;;6.40;86.10;;;;;;5036007;28;20040;-64
2023/03/29 06:44:06;;;;;;;4.95;2.28;;;6.50;85.60;;;;;;5044616;28;20083;-63
2023/03/29 06:46:36;;;;;;;7.75;2.13;;;6.60;86.00;;;;;;5031617;28;20597;-64
2023/03/29 06:49:05;;;;;;;6.50;2.00;;;6.70;84.60;;;;;;5042879;28;20029;-64
2023/03/29 06:51:55;;;;;;;5.53;2.17;;;6.70;85.00;;;;;;5039991;28;20033;-63
2023/03/29 06:54:22;;;;;;;6.63;2.30;;;6.90;85.40;;;;;;5024860;28;20033;-65
2023/03/29 06:56:58;;;;;;;5.88;2.00;;;7.00;85.60;;;;;;5037098;28;20029;-69
2023/03/29 06:59:25;;;;;;;8.70;2.35;;;7.10;84.20;;;;;;5034119;28;20034;-69
2023/03/29 07:02:11;;;;;;;6.88;3.25;;;7.00;82.80;;;;;;5025194;28;20049;-68
2023/03/29 07:04:46;;;;;;;11.15;2.42;;;7.00;82.70;;;;;;5032995;28;20060;-69
2023/03/29 07:07:19;;;;;;;3.03;1.92;;;7.10;82.80;;;;;;5038860;28;20685;-69
2023/03/29 07:09:52;;;;;;;8.82;2.15;;;6.90;84.20;;;;;;5030241;28;20043;-69
2023/03/29 07:12:54;;;;;;;6.90;2.45;;;6.90;84.20;;;;;;4981284;28;20038;-69
2023/03/29 07:15:20;;;;;;;8.90;2.33;;;7.00;84.10;;;;;;5022267;28;20029;-69
2023/03/29 07:18:08;;;;;;;5.10;2.20;;;7.10;84.80;;;;;;5035466;28;20025;-69
2023/03/29 07:20:34;;;;;;;6.07;2.45;;;7.30;82.30;;;;;;5032786;28;20095;-69
2023/03/29 07:23:05;;;;;;;4.60;2.47;;;7.20;82.10;;;;;;5036313;28;20047;-69
2023/03/29 07:25:32;;;;;;;9.38;2.78;;;7.30;82.90;;;;;;5032138;28;20558;-69
2023/03/29 07:27:58;;;;;;;3.08;1.90;;;7.40;83.50;;;;;;5023616;28;20040;-63
2023/03/29 07:30:28;;;;;;;10.55;2.40;;;7.50;82.80;;;;;;5033246;28;20029;-64
2023/03/29 07:33:00;;;;;;;6.18;2.70;;;7.70;82.50;;;;;;5036721;28;20029;-63
2023/03/29 07:35:31;;;;;;;2.83;2.00;;;7.90;82.20;;;;;;5036172;28;20056;-63
2023/03/29 07:37:58;;;;;;;5.55;2.38;;;8.10;80.90;;;;;;5042035;28;20129;-63
2023/03/29 07:40:26;;;;;;;7.57;2.85;;;8.20;80.70;;;;;;5038613;28;20032;-64
2023/03/29 07:42:55;;;;;;;5.90;2.20;;;8.30;80.00;;;;;;5040974;28;20135;-64
2023/03/29 07:45:24;;;;;;;6.35;2.13;;;8.50;79.70;;;;;;5039617;28;20032;-63
2023/03/29 07:47:59;;;;;;;6.80;2.13;;;8.50;79.10;;;;;;5033403;28;20075;-63
2023/03/29 07:50:31;;;;;;;5.47;2.28;;;8.50;78.80;;;;;;5026338;28;20034;-64
2023/03/29 07:53:00;;;;;;;8.48;2.42;;;8.50;80.70;;;;;;5039741;28;20021;-63
2023/03/29 07:55:27;;;;;;;3.45;2.00;;;8.50;79.20;;;;;;5036886;28;20033;-64
2023/03/29 07:58:14;;;;;;;7.28;2.28;;;8.70;79.90;;;;;;5034332;28;20095;-64
2023/03/29 08:00:44;;;;;;;5.95;2.30;;;8.80;80.10;;;;;;5038001;28;20075;-64
2023/03/29 08:03:33;;;;;;;7.47;2.28;;;8.80;79.00;;;;;;5039461;28;20044;-64
2023/03/29 08:06:03;;;;;;;4.93;1.80;;;8.90;79.70;;;;;;5036878;28;20037;-64
2023/03/29 08:08:29;;;;;;;6.20;1.90;;;9.10;77.60;;;;;;5039615;28;20106;-62
2023/03/29 08:10:59;;;;;;;6.18;2.28;;;9.20;78.80;;;;;;5037233;28;20051;-64
2023/03/29 08:13:50;;;;;;;8.18;2.28;;;9.50;77.40;;;;;;5038378;28;20049;-64
2023/03/29 08:16:21;;;;;;;6.75;2.80;;;9.80;76.40;;;;;;5040942;28;20044;-65
2023/03/29 08:18:54;;;;;;;3.97;1.80;;;10.00;74.80;;;;;;5028485;28;20138;-64
2023/03/29 08:21:22;;;;;;;8.18;2.10;;;10.30;74.20;;;;;;5032388;28;20029;-64
2023/03/29 08:23:49;;;;;;;4.18;1.90;;;10.50;74.60;;;;;;5035974;28;20025;-64
2023/03/29 08:26:23;;;;;;;5.50;1.88;;;10.90;74.70;;;;;;5049167;28;20409;-64
2023/03/29 08:28:50;;;;;;;6.28;2.03;;;11.30;70.80;;;;;;5036051;28;20060;-64
2023/03/29 08:31:17;;;;;;;5.78;1.90;;;11.30;69.70;;;;;;5035181;28;20480;-64
2023/03/29 08:33:44;;;;;;;4.55;2.38;;;11.30;70.40;;;;;;5039101;28;20803;-64
2023/03/29 08:36:28;;;;;;;3.40;2.05;;;11.10;69.70;;;;;;5040403;28;20048;-64
2023/03/29 08:38:57;;;;;;;4.78;1.95;;;11.10;71.50;;;;;;5036596;28;20115;-66
2023/03/29 08:41:59;;;;;;;12.98;2.47;;;10.80;71.80;;;;;;5033185;28;20047;-65
2023/03/29 08:44:54;;;;;;;4.70;1.98;;;10.90;72.50;;;;;;4974065;28;20035;-64
2023/03/29 08:47:38;;;;;;;6.75;2.30;;;10.70;71.50;;;;;;5026040;28;20037;-64
2023/03/29 08:50:08;;;;;;;2.47;1.92;;;10.50;72.70;;;;;;5036662;28;20852;-64
2023/03/29 08:52:47;;;;;;;5.40;2.17;;;10.60;73.60;;;;;;5027506;28;20034;-62
2023/03/29 08:55:37;;;;;;;4.57;2.22;;;11.10;73.20;;;;;;5036811;28;20056;-63
2023/03/29 08:58:24;;;;;;;3.08;2.15;;;11.80;71.80;;;;;;5038164;28;20056;-64
2023/03/29 09:00:57;;;;;;;5.10;2.17;;;12.60;70.30;;;;;;5036219;28;20559;-64
2023/03/29 09:03:26;;;;;;;4.35;1.70;;;13.10;68.70;;;;;;5029838;28;20043;-64
2023/03/29 09:06:01;;;;;;;6.85;2.20;;;13.00;67.40;;;;;;5034206;28;20039;-64
2023/03/29 09:08:27;;;;;;;4.00;1.85;;;13.10;67.00;;;;;;5033806;28;20657;-64
2023/03/29 09:11:17;;;;;;;7.05;2.40;;;13.20;66.30;;;;;;5036245;28;20033;-64
2023/03/29 09:14:30;;;;;;;5.28;2.17;;;13.10;67.70;;;;;;5035148;28;20029;-64
2023/03/29 09:17:05;;;;;;;6.10;2.30;;;12.90;67.20;;;;;;5036421;28;20025;-64
2023/03/29 09:19:53;;;;;;;4.00;2.00;;;12.90;66.80;;;;;;5038450;28;20045;-64
2023/03/29 09:22:35;;;;;;;3.95;2.30;;;12.90;68.30;;;;;;5037976;28;20040;-64
2023/03/29 09:25:38;;;;;;;3.05;1.85;;;13.10;68.60;;;;;;5036591;28;20674;-64
2023/03/29 09:28:25;;;;;;;4.30;2.35;;;12.90;68.70;;;;;;5031947;28;20880;-64
2023/03/29 09:31:21;;;;;;;5.25;2.38;;;12.90;71.00;;;;;;5056220;28;20912;-64
2023/03/29 09:33:55;;;;;;;5.03;2.25;;;13.00;69.40;;;;;;5030308;28;20095;-64
2023/03/29 09:36:50;;;;;;;4.03;2.20;;;12.70;71.20;;;;;;5036000;28;20057;-64
2023/03/29 09:39:16;;;;;;;2.65;1.60;;;12.80;71.00;;;;;;5046681;28;20123;-64
2023/03/29 09:41:59;;;;;;;4.63;1.70;;;12.80;70.70;;;;;;5023323;28;20512;-64
2023/03/29 09:44:37;;;;;;;3.58;2.40;;;12.60;72.10;;;;;;5033135;28;20041;-64
2023/03/29 09:47:36;;;;;;;4.18;2.20;;;12.70;70.00;;;;;;5032893;28;20029;-64
2023/03/29 09:50:11;;;;;;;3.10;1.85;;;13.30;70.00;;;;;;4987764;28;20057;-65
2023/03/29 09:52:37;;;;;;;5.70;2.25;;;13.70;66.60;;;;;;5040035;28;20731;-64
2023/03/29 09:55:17;;;;;;;2.67;1.80;;;14.10;67.00;;;;;;5036771;28;20091;-64
2023/03/29 09:57:54;;;;;;;2.92;2.00;;;14.20;67.50;;;;;;5037923;28;20059;-64
2023/03/29 10:00:20;;;;;;;6.28;2.00;;;14.20;65.20;;;;;;5039128;28;20044;-64
2023/03/29 10:02:51;;;;;;;4.30;2.00;;;14.30;66.80;;;;;;5034938;28;20035;-64
2023/03/29 10:05:20;;;;;;;7.45;2.55;;;14.30;65.70;;;;;;5031801;28;20029;-64
2023/03/29 10:07:50;;;;;;;5.18;2.25;;;13.80;64.80;;;;;;5039701;28;20794;-64
2023/03/29 10:10:23;;;;;;;5.10;2.38;;;13.80;67.00;;;;;;5036765;28;20303;-65
2023/03/29 10:12:52;;;;;;;3.35;1.80;;;13.30;65.10;;;;;;5040046;28;20124;-64
2023/03/29 10:15:20;;;;;;;4.65;2.30;;;12.80;67.70;;;;;;5041014;28;20045;-64
2023/03/29 10:17:46;;;;;;;5.25;2.28;;;12.50;69.60;;;;;;5039726;28;20790;-65
2023/03/29 10:20:17;;;;;;;4.20;2.38;;;12.20;71.10;;;;;;5039691;28;20143;-64
2023/03/29 10:22:53;;;;;;;3.78;2.10;;;12.20;72.40;;;;;;5042381;28;20043;-64
2023/03/29 10:25:24;;;;;;;2.70;1.77;;;12.10;70.80;;;;;;5037972;28;20056;-64
2023/03/29 10:27:50;;;;;;;3.15;1.90;;;12.20;70.80;;;;;;5040209;28;20044;-64
2023/03/29 10:30:22;;;;;;;3.67;2.20;;;12.30;71.10;;;;;;5041243;28;20048;-64
2023/03/29 10:32:56;;;;;;;3.58;2.10;;;12.30;69.60;;;;;;5038431;28;20033;-64
2023/03/29 10:35:40;;;;;;;5.50;2.30;;;12.40;71.50;;;;;;5040267;28;20041;-65
2023/03/29 10:38:13;;;;;;;4.65;2.17;;;12.70;71.40;;;;;;5037653;28;20021;-65
2023/03/29 10:40:47;;;;;;;4.63;2.28;;;13.00;69.70;;;;;;5039360;28;20041;-65
2023/03/29 10:43:21;;;;;;;4.90;2.50;;;13.10;69.10;;;;;;5037641;28;20033;-64
2023/03/29 10:45:52;;;;;;;5.90;2.15;;;12.90;70.90;;;;;;5040417;28;20058;-63
2023/03/29 10:48:24;;;;;;;4.28;2.17;;;13.00;69.90;;;;;;5038673;28;20047;-64
2023/03/29 10:50:53;;;;;;;4.13;2.08;;;12.80;70.20;;;;;;5041348;28;20032;-64
2023/03/29 10:53:27;;;;;;;3.28;2.20;;;12.60;70.20;;;;;;5041233;28;20036;-64
2023/03/29 10:56:11;;;;;;;4.10;2.00;;;12.40;70.20;;;;;;5039945;28;20057;-64
2023/03/29 10:59:15;;;;;;;3.70;2.10;;;12.00;70.70;;;;;;5040125;28;20393;-65
2023/03/29 11:02:23;;;;;;;2.97;2.05;;;11.70;71.70;;;;;;5014896;28;20060;-64
2023/03/29 11:05:06;;;;;;;5.13;2.25;;;11.60;73.60;;;;;;5041353;28;21660;-65
2023/03/29 11:07:39;;;;;;;3.55;2.03;;;11.50;72.00;;;;;;5041319;28;20303;-66
2023/03/29 11:10:27;;;;;;;3.70;2.03;;;11.50;73.00;;;;;;5043363;28;20033;-65
2023/03/29 11:12:58;;;;;;;4.82;2.72;;;11.70;73.00;;;;;;5040749;28;20056;-66
2023/03/29 11:15:52;;;;;;;7.03;2.47;;;11.90;73.80;;;;;;5039013;28;20037;-65
2023/03/29 11:18:45;;;;;;;5.43;2.67;;;11.90;71.90;;;;;;5039681;28;20041;-65
2023/03/29 11:21:25;;;;;;;3.70;2.33;;;12.00;72.60;;;;;;5040949;28;20583;-65
2023/03/29 11:24:14;;;;;;;3.95;2.10;;;12.00;71.90;;;;;;5037935;28;20486;-65
2023/03/29 11:26:55;;;;;;;3.83;2.30;;;12.10;70.80;;;;;;5031385;28;20456;-63
2023/03/29 11:29:30;;;;;;;5.15;2.35;;;12.30;70.70;;;;;;5036356;28;20029;-63
2023/03/29 11:32:19;;;;;;;4.07;2.33;;;12.40;72.50;;;;;;5039977;28;20464;-64
2023/03/29 11:35:22;;;;;;;7.30;2.35;;;12.50;70.30;;;;;;5044328;28;20057;-64
2023/03/29 11:37:57;;;;;;;2.63;2.30;;;12.80;70.20;;;;;;5040657;28;20659;-65
2023/03/29 11:40:34;;;;;;;4.40;2.35;;;12.80;68.10;;;;;;5040947;28;20033;-62
2023/03/29 11:43:08;;;;;;;3.40;2.08;;;12.60;69.30;;;;;;5041018;28;20440;-63
2023/03/29 11:46:02;;;;;;;9.20;3.22;;;12.60;70.60;;;;;;5043697;28;20637;-64
2023/03/29 11:48:37;;;;;;;3.78;2.15;;;12.60;70.60;;;;;;5040685;28;20051;-64
2023/03/29 11:51:22;;;;;;;3.13;1.80;;;12.70;69.40;;;;;;5040987;28;20028;-64
2023/03/29 11:53:57;;;;;;;2.88;2.03;;;12.70;68.10;;;;;;5038328;28;20033;-63
2023/03/29 11:56:43;;;;;;;4.80;1.90;;;12.80;69.70;;;;;;5043505;28;20108;-63
2023/03/29 11:59:38;;;;;;;3.75;2.08;;;12.50;69.50;;;;;;5042826;28;20041;-63
2023/03/29 12:02:30;;;;;;;4.07;2.05;;;12.50;69.10;;;;;;5042239;28;20067;-63
2023/03/29 12:05:01;;;;;;;3.72;1.88;;;12.40;68.00;;;;;;5039164;28;20485;-64
2023/03/29 12:07:29;;;;;;;4.32;2.20;;;12.20;69.70;;;;;;5042643;28;20441;-64
2023/03/29 12:10:04;;;;;;;2.60;2.03;;;12.20;70.00;;;;;;5042957;28;20033;-64
2023/03/29 12:12:51;;;;;;;3.15;1.90;;;12.10;70.40;;;;;;5035405;28;20143;-63
2023/03/29 12:15:21;;;;;;;3.40;1.90;;;12.20;72.40;;;;;;5040122;28;20024;-64
2023/03/29 12:18:15;;;;;;;2.80;1.92;;;12.40;71.10;;;;;;5044134;28;20102;-65
2023/03/29 12:20:45;;;;;;;4.07;1.95;;;12.40;71.40;;;;;;5040578;28;20032;-64
2023/03/29 12:23:15;;;;;;;4.75;2.08;;;12.30;69.70;;;;;;5042978;28;20033;-64
2023/03/29 12:26:02;;;;;;;5.15;3.25;;;12.30;72.40;;;;;;5041700;28;20071;-64
2023/03/29 12:28:55;;;;;;;5.20;2.17;;;12.50;72.30;;;;;;5042008;28;20052;-65
2023/03/29 12:31:35;;;;;;;6.30;2.50;;;12.60;69.70;;;;;;5039626;28;20028;-64
2023/03/29 12:34:07;;;;;;;2.60;1.85;;;12.60;71.30;;;;;;5040373;28;20083;-64
2023/03/29 12:37:16;;;;;;;2.63;2.00;;;12.70;69.80;;;;;;5041795;28;21054;-64
2023/03/29 12:39:44;;;;;;;2.63;2.10;;;12.90;67.10;;;;;;5040316;28;20095;-63
2023/03/29 12:42:53;;;;;;;5.03;2.00;;;13.00;67.80;;;;;;4963930;28;20066;-65
2023/03/29 12:45:49;;;;;;;5.10;2.07;;;13.00;67.10;;;;;;4960070;28;20058;-64
2023/03/29 12:48:20;;;;;;;2.88;2.22;;;13.10;67.60;;;;;;5014578;28;20404;-65
2023/03/29 12:51:00;;;;;;;3.92;1.90;;;12.90;67.80;;;;;;5041651;28;20082;-64
2023/03/29 12:53:32;;;;;;;6.75;2.15;;;12.70;66.40;;;;;;5041218;28;20073;-64
2023/03/29 12:56:10;;;;;;;3.00;1.73;;;12.50;67.30;;;;;;5040622;28;20557;-65
2023/03/29 12:58:39;;;;;;;3.83;2.13;;;12.50;65.60;;;;;;5034170;28;20036;-64
2023/03/29 13:01:09;;;;;;;5.50;2.35;;;12.70;68.70;;;;;;5041451;28;20465;-64
2023/03/29 13:03:38;;;;;;;4.97;2.53;;;12.80;68.50;;;;;;5039940;28;20118;-64
2023/03/29 13:06:08;;;;;;;4.38;2.13;;;12.90;70.20;;;;;;5042439;28;20060;-65
2023/03/29 13:08:42;;;;;;;5.85;3.95;;;13.00;67.00;;;;;;5043880;28;20060;-63
2023/03/29 13:11:31;;;;;;;2.60;1.98;;;13.20;67.80;;;;;;5045015;28;20104;-64
2023/03/29 13:14:00;;;;;;;3.67;2.45;;;13.20;66.70;;;;;;5039957;28;20462;-64
2023/03/29 13:16:33;;;;;;;5.97;2.50;;;13.10;67.50;;;;;;5039371;28;20029;-64
2023/03/29 13:19:05;;;;;;;3.17;1.90;;;12.90;67.00;;;;;;5042448;28;20036;-64
2023/03/29 13:21:52;;;;;;;2.90;1.98;;;12.80;68.80;;;;;;5044346;28;20033;-63
2023/03/29 13:24:30;;;;;;;12.95;2.28;;;12.80;69.60;;;;;;5047448;28;20114;-64
2023/03/29 13:27:04;;;;;;;6.60;2.50;;;12.60;69.80;;;;;;5043167;28;20037;-64
2023/03/29 13:29:48;;;;;;;2.88;2.17;;;12.50;69.30;;;;;;5045181;28;20048;-64
2023/03/29 13:32:39;;;;;;;4.25;2.50;;;12.50;70.00;;;;;;5061116;28;20582;-64
2023/03/29 13:35:27;;;;;;;7.10;2.50;;;12.60;70.50;;;;;;5043791;28;20044;-64